createdAt,value
2022-08-02T00:00:11.865Z,99.90
2022-08-02T00:02:38.854Z,99.90
2022-08-02T00:05:06.014Z,99.90
2022-08-02T00:07:37.597Z,99.90
2022-08-02T00:10:09.110Z,99.90
2022-08-02T00:12:35.746Z,99.90
2022-08-02T00:15:03.404Z,99.90
2022-08-02T00:17:30.043Z,99.90
2022-08-02T00:19:56.626Z,99.90
2022-08-02T00:22:23.230Z,99.90
2022-08-02T00:24:49.839Z,99.90
2022-08-02T00:27:16.466Z,99.90
2022-08-02T00:29:53.248Z,99.90
2022-08-02T00:32:20.615Z,99.90
2022-08-02T00:34:47.454Z,99.90
2022-08-02T00:37:14.584Z,99.90
2022-08-02T00:39:42.822Z,99.90
2022-08-02T00:42:10.019Z,99.90
2022-08-02T00:44:37.002Z,99.90
2022-08-02T00:47:03.719Z,99.90
2022-08-02T00:49:30.553Z,99.90
2022-08-02T00:51:59.964Z,99.90
2022-08-02T00:54:26.741Z,99.90
2022-08-02T00:56:53.411Z,99.90
2022-08-02T00:59:20.068Z,99.90
2022-08-02T01:01:56.914Z,99.90
2022-08-02T01:04:31.596Z,99.90
2022-08-02T01:07:12.122Z,99.90
2022-08-02T01:09:44.510Z,99.90
2022-08-02T01:12:12.715Z,99.90
2022-08-02T01:14:43.305Z,99.90
2022-08-02T01:17:32.233Z,99.90
2022-08-02T01:20:41.666Z,99.90
2022-08-02T01:23:32.408Z,99.90
2022-08-02T01:26:14.007Z,99.90
2022-08-02T01:28:46.721Z,99.90
2022-08-02T01:31:13.609Z,99.90
2022-08-02T01:33:47.272Z,99.90
2022-08-02T01:36:17.814Z,99.90
2022-08-02T01:38:48.208Z,99.90
2022-08-02T01:41:21.390Z,99.90
2022-08-02T01:43:51.962Z,99.90
2022-08-02T01:46:20.245Z,99.90
2022-08-02T01:48:49.389Z,99.90
2022-08-02T01:51:18.444Z,99.90
2022-08-02T01:53:48.402Z,99.90
2022-08-02T01:56:16.257Z,99.90
2022-08-02T01:58:44.175Z,99.90
2022-08-02T02:01:14.467Z,99.90
2022-08-02T02:03:47.436Z,99.90
2022-08-02T02:06:16.476Z,99.90
2022-08-02T02:08:44.346Z,99.90
2022-08-02T02:12:14.715Z,99.90
2022-08-02T02:14:00.734Z,99.90
2022-08-02T02:16:28.390Z,99.90
2022-08-02T02:18:55.526Z,99.90
2022-08-02T02:21:22.293Z,99.90
2022-08-02T02:23:50.033Z,99.90
2022-08-02T02:26:31.462Z,99.90
2022-08-02T02:29:02.172Z,99.90
2022-08-02T02:31:32.620Z,99.90
2022-08-02T02:34:21.928Z,99.90
2022-08-02T02:36:51.534Z,99.90
2022-08-02T02:39:22.219Z,99.90
2022-08-02T02:41:51.385Z,99.90
2022-08-02T02:44:20.503Z,99.90
2022-08-02T02:46:50.466Z,99.90
2022-08-02T02:49:19.027Z,99.90
2022-08-02T02:51:46.069Z,99.90
2022-08-02T02:54:30.040Z,99.90
2022-08-02T02:57:01.172Z,99.90
2022-08-02T02:59:28.662Z,99.90
2022-08-02T03:01:57.835Z,99.90
2022-08-02T03:04:56.172Z,99.90
2022-08-02T03:07:14.865Z,99.90
2022-08-02T03:09:41.470Z,99.90
2022-08-02T03:12:09.999Z,99.90
2022-08-02T03:14:42.706Z,99.90
2022-08-02T03:17:09.664Z,99.90
2022-08-02T03:19:36.313Z,99.90
2022-08-02T03:22:02.957Z,99.90
2022-08-02T03:24:29.691Z,99.90
2022-08-02T03:26:56.331Z,99.90
2022-08-02T03:29:22.983Z,99.90
2022-08-02T03:31:50.122Z,99.90
2022-08-02T03:34:17.138Z,99.90
2022-08-02T03:36:48.143Z,99.90
2022-08-02T03:39:16.490Z,99.90
2022-08-02T03:41:43.776Z,99.90
2022-08-02T03:44:12.382Z,99.90
2022-08-02T03:46:40.013Z,99.90
2022-08-02T03:49:08.302Z,99.90
2022-08-02T03:51:36.137Z,99.90
2022-08-02T03:54:03.765Z,99.90
2022-08-02T03:56:30.720Z,99.90
2022-08-02T03:59:11.614Z,99.90
2022-08-02T04:01:38.375Z,99.90
2022-08-02T04:04:06.433Z,99.90
2022-08-02T04:06:33.140Z,99.90
2022-08-02T04:08:59.788Z,99.90
2022-08-02T04:11:32.318Z,99.90
2022-08-02T04:14:07.569Z,99.90
2022-08-02T04:16:40.284Z,99.90
2022-08-02T04:19:10.345Z,99.90
2022-08-02T04:21:51.543Z,99.90
2022-08-02T04:24:25.171Z,99.90
2022-08-02T04:26:57.850Z,99.90
2022-08-02T04:29:35.103Z,99.90
2022-08-02T04:32:02.642Z,99.90
2022-08-02T04:34:30.310Z,99.90
2022-08-02T04:36:58.619Z,99.90
2022-08-02T04:39:25.583Z,99.90
2022-08-02T04:41:57.152Z,99.90
2022-08-02T04:44:24.835Z,99.90
2022-08-02T04:46:52.122Z,99.90
2022-08-02T04:49:18.873Z,99.90
2022-08-02T04:51:45.652Z,99.90
2022-08-02T04:54:12.670Z,99.90
2022-08-02T04:56:39.725Z,99.90
2022-08-02T04:59:06.771Z,99.90
2022-08-02T05:01:34.803Z,99.90
2022-08-02T05:04:01.735Z,99.90
2022-08-02T05:06:28.326Z,99.90
2022-08-02T05:08:54.985Z,99.90
2022-08-02T05:11:23.052Z,99.90
2022-08-02T05:14:01.736Z,99.90
2022-08-02T05:16:31.351Z,99.90
2022-08-02T05:18:58.802Z,99.90
2022-08-02T05:21:25.422Z,99.90
2022-08-02T05:23:52.075Z,99.90
2022-08-02T05:26:18.750Z,99.90
2022-08-02T05:28:45.357Z,99.90
2022-08-02T05:31:13.246Z,99.90
2022-08-02T05:33:40.452Z,99.90
2022-08-02T05:36:09.154Z,99.90
2022-08-02T05:38:37.247Z,99.90
2022-08-02T05:41:05.077Z,99.90
2022-08-02T05:43:31.742Z,99.90
2022-08-02T05:45:58.501Z,99.90
2022-08-02T05:48:29.293Z,99.90
2022-08-02T05:51:04.150Z,99.90
2022-08-02T05:53:56.958Z,99.90
2022-08-02T05:56:34.190Z,99.90
2022-08-02T05:59:32.178Z,99.90
2022-08-02T06:02:10.215Z,99.90
2022-08-02T06:04:58.555Z,99.90
2022-08-02T06:07:25.639Z,99.90
2022-08-02T06:09:52.521Z,99.90
2022-08-02T06:12:20.083Z,99.90
2022-08-02T06:14:51.387Z,99.90
2022-08-02T06:17:21.361Z,99.90
2022-08-02T06:19:52.169Z,99.90
2022-08-02T06:22:33.326Z,99.90
2022-08-02T06:25:03.185Z,99.90
2022-08-02T06:27:30.634Z,99.90
2022-08-02T06:29:58.513Z,99.90
2022-08-02T06:32:27.048Z,99.90
2022-08-02T06:34:53.979Z,99.90
2022-08-02T06:37:27.699Z,99.90
2022-08-02T06:40:09.683Z,99.90
2022-08-02T06:42:51.570Z,99.90
2022-08-02T06:45:18.645Z,99.90
2022-08-02T06:47:45.385Z,99.90
2022-08-02T06:50:12.162Z,99.90
2022-08-02T06:52:39.129Z,99.90
2022-08-02T06:55:06.782Z,99.90
2022-08-02T06:57:34.443Z,99.90
2022-08-02T07:00:02.491Z,99.90
2022-08-02T07:02:30.786Z,99.90
2022-08-02T07:04:57.947Z,99.90
2022-08-02T07:07:24.639Z,99.90
2022-08-02T07:09:57.248Z,99.90
2022-08-02T07:12:29.570Z,99.90
2022-08-02T07:14:56.842Z,99.90
2022-08-02T07:17:23.434Z,99.90
2022-08-02T07:19:50.269Z,99.90
2022-08-02T07:22:18.619Z,99.90
2022-08-02T07:24:45.341Z,99.90
2022-08-02T07:27:12.994Z,99.90
2022-08-02T07:29:46.502Z,99.90
2022-08-02T07:32:18.663Z,99.90
2022-08-02T07:34:51.058Z,99.90
2022-08-02T07:37:35.241Z,99.90
2022-08-02T07:40:14.202Z,99.90
2022-08-02T07:42:43.635Z,99.90
2022-08-02T07:45:11.909Z,99.90
2022-08-02T07:47:39.967Z,99.90
2022-08-02T07:50:08.381Z,99.90
2022-08-02T07:52:35.296Z,99.90
2022-08-02T07:55:01.985Z,99.90
2022-08-02T07:57:28.588Z,99.90
2022-08-02T07:59:55.226Z,99.90
2022-08-02T08:02:23.639Z,99.90
2022-08-02T08:04:50.864Z,99.90
2022-08-02T08:07:17.646Z,99.90
2022-08-02T08:09:45.144Z,99.90
2022-08-02T08:12:12.652Z,99.90
2022-08-02T08:14:40.045Z,99.90
2022-08-02T08:17:07.342Z,99.90
2022-08-02T08:19:51.551Z,99.90
2022-08-02T08:22:19.849Z,99.90
2022-08-02T08:24:47.925Z,99.90
2022-08-02T08:27:15.405Z,99.90
2022-08-02T08:29:43.463Z,99.90
2022-08-02T08:32:15.762Z,99.90
2022-08-02T08:34:43.164Z,99.90
2022-08-02T08:37:09.777Z,99.90
2022-08-02T08:39:57.129Z,99.90
2022-08-02T08:42:28.695Z,99.90
2022-08-02T08:44:57.419Z,99.90
2022-08-02T08:47:36.806Z,99.90
2022-08-02T08:50:05.842Z,99.90
2022-08-02T08:52:39.918Z,99.90
2022-08-02T08:55:10.422Z,99.90
2022-08-02T08:57:41.917Z,99.90
2022-08-02T09:00:12.756Z,99.90
2022-08-02T09:02:42.666Z,99.90
2022-08-02T09:05:14.942Z,99.90
2022-08-02T09:07:44.690Z,99.90
2022-08-02T09:10:39.221Z,99.90
2022-08-02T09:13:39.042Z,99.90
2022-08-02T09:16:12.196Z,99.90
2022-08-02T09:18:44.431Z,99.90
2022-08-02T09:21:11.845Z,99.90
2022-08-02T09:23:43.934Z,99.90
2022-08-02T09:26:13.330Z,99.90
2022-08-02T09:28:43.008Z,99.90
2022-08-02T09:31:11.341Z,99.90
2022-08-02T09:33:39.757Z,99.90
2022-08-02T09:36:13.946Z,99.90
2022-08-02T09:38:51.548Z,99.90
2022-08-02T09:41:24.023Z,99.90
2022-08-02T09:44:03.573Z,99.90
2022-08-02T09:46:38.071Z,99.90
2022-08-02T09:49:09.672Z,99.90
2022-08-02T09:51:39.368Z,99.90
2022-08-02T09:54:13.957Z,99.90
2022-08-02T09:56:43.423Z,99.90
2022-08-02T09:59:10.992Z,99.90
2022-08-02T10:01:38.899Z,99.90
2022-08-02T10:04:14.498Z,99.90
2022-08-02T10:06:48.521Z,99.90
2022-08-02T10:09:15.592Z,99.90
2022-08-02T10:11:42.458Z,99.90
2022-08-02T10:14:10.695Z,99.90
2022-08-02T10:16:40.406Z,99.90
2022-08-02T10:19:07.957Z,99.90
2022-08-02T10:21:46.901Z,99.90
2022-08-02T10:24:20.287Z,99.90
2022-08-02T10:26:48.479Z,99.90
2022-08-02T10:29:21.159Z,99.90
2022-08-02T10:31:53.218Z,99.90
2022-08-02T10:34:26.551Z,99.90
2022-08-02T10:37:02.682Z,99.90
2022-08-02T10:39:37.678Z,99.90
2022-08-02T10:42:04.331Z,99.90
2022-08-02T10:44:33.099Z,99.90
2022-08-02T10:47:15.446Z,99.90
2022-08-02T10:49:59.843Z,99.90
2022-08-02T10:52:28.343Z,99.90
2022-08-02T10:54:56.902Z,99.90
2022-08-02T10:57:29.013Z,99.90
2022-08-02T11:00:12.707Z,99.90
2022-08-02T11:02:46.981Z,99.90
2022-08-02T11:05:16.353Z,99.90
2022-08-02T11:07:49.614Z,99.90
2022-08-02T11:10:28.659Z,99.90
2022-08-02T11:13:07.502Z,99.90
2022-08-02T11:16:01.060Z,99.90
2022-08-02T11:18:51.834Z,99.90
2022-08-02T11:21:22.952Z,99.90
2022-08-02T11:23:49.799Z,99.90
2022-08-02T11:26:31.738Z,99.90
2022-08-02T11:29:00.157Z,99.90
2022-08-02T11:31:27.574Z,99.90
2022-08-02T11:33:54.968Z,99.90
2022-08-02T11:36:22.937Z,99.90
2022-08-02T11:38:49.764Z,99.90
2022-08-02T11:41:45.878Z,99.90
2022-08-02T11:44:10.008Z,99.90
2022-08-02T11:46:37.084Z,99.90
2022-08-02T11:49:18.453Z,99.90
2022-08-02T11:51:59.534Z,99.90
2022-08-02T11:54:32.253Z,99.90
2022-08-02T11:57:19.380Z,99.90
2022-08-02T11:59:49.761Z,99.90
2022-08-02T12:02:17.702Z,99.90
2022-08-02T12:04:52.940Z,99.90
2022-08-02T12:07:34.807Z,99.90
2022-08-02T12:10:10.558Z,99.90
2022-08-02T12:12:57.647Z,99.10
2022-08-02T12:15:33.278Z,98.90
2022-08-02T12:18:19.369Z,99.10
2022-08-02T12:20:46.300Z,98.80
2022-08-02T12:23:13.291Z,99.00
2022-08-02T12:25:40.422Z,99.10
2022-08-02T12:28:17.514Z,99.20
2022-08-02T12:31:01.127Z,99.10
2022-08-02T12:33:44.797Z,98.60
2022-08-02T12:36:19.123Z,99.30
2022-08-02T12:38:59.127Z,99.50
2022-08-02T12:41:31.048Z,99.40
2022-08-02T12:43:59.777Z,99.20
2022-08-02T12:46:26.486Z,98.80
2022-08-02T12:49:16.196Z,98.00
2022-08-02T12:51:51.106Z,97.60
2022-08-02T12:54:30.702Z,97.60
2022-08-02T12:56:58.019Z,97.20
2022-08-02T12:59:38.659Z,97.70
2022-08-02T13:02:12.579Z,96.60
2022-08-02T13:04:40.090Z,96.40
2022-08-02T13:07:06.752Z,96.30
2022-08-02T13:09:38.751Z,95.50
2022-08-02T13:12:06.836Z,95.40
2022-08-02T13:14:39.619Z,95.20
2022-08-02T13:17:09.033Z,95.70
2022-08-02T13:19:36.919Z,95.40
2022-08-02T13:22:04.285Z,96.10
2022-08-02T13:24:38.567Z,96.00
2022-08-02T13:27:08.190Z,95.90
2022-08-02T13:29:36.289Z,95.40
2022-08-02T13:32:02.922Z,95.60
2022-08-02T13:34:29.595Z,95.40
2022-08-02T13:36:56.237Z,95.00
2022-08-02T13:39:22.831Z,95.70
2022-08-02T13:41:49.765Z,94.70
2022-08-02T13:44:17.495Z,94.20
2022-08-02T13:46:45.681Z,93.60
2022-08-02T13:49:18.525Z,94.00
2022-08-02T13:51:49.866Z,93.80
2022-08-02T13:54:17.392Z,94.30
2022-08-02T13:56:44.344Z,94.10
2022-08-02T13:59:26.441Z,94.60
2022-08-02T14:01:58.701Z,93.80
2022-08-02T14:04:26.534Z,93.70
2022-08-02T14:06:53.432Z,93.50
2022-08-02T14:09:20.231Z,93.50
2022-08-02T14:11:47.083Z,93.10
2022-08-02T14:14:16.603Z,93.20
2022-08-02T14:16:45.486Z,93.20
2022-08-02T14:19:16.317Z,93.50
2022-08-02T14:21:47.058Z,93.00
2022-08-02T14:24:16.238Z,93.20
2022-08-02T14:26:43.235Z,93.50
2022-08-02T14:29:10.383Z,94.00
2022-08-02T14:31:40.318Z,93.40
2022-08-02T14:34:10.939Z,93.10
2022-08-02T14:36:38.701Z,93.20
2022-08-02T14:39:05.532Z,93.30
2022-08-02T14:41:33.859Z,93.10
2022-08-02T14:44:20.479Z,93.20
2022-08-02T14:46:47.119Z,93.40
2022-08-02T14:49:25.844Z,93.20
2022-08-02T14:51:54.604Z,92.20
2022-08-02T14:54:28.069Z,92.20
2022-08-02T14:56:59.426Z,92.60
2022-08-02T14:59:26.438Z,92.50
2022-08-02T15:01:53.226Z,92.30
2022-08-02T15:04:19.930Z,91.80
2022-08-02T15:06:46.598Z,92.00
2022-08-02T15:09:16.000Z,91.60
2022-08-02T15:11:47.833Z,91.90
2022-08-02T15:14:18.460Z,91.80
2022-08-02T15:16:56.475Z,91.30
2022-08-02T15:19:25.940Z,91.90
2022-08-02T15:22:03.710Z,91.60
2022-08-02T15:24:30.290Z,91.70
2022-08-02T15:26:56.997Z,91.70
2022-08-02T15:29:23.626Z,92.00
2022-08-02T15:31:50.310Z,92.00
2022-08-02T15:34:18.814Z,91.60
2022-08-02T15:36:45.638Z,91.50
2022-08-02T15:39:12.406Z,91.50
2022-08-02T15:41:39.053Z,91.40
2022-08-02T15:44:08.553Z,91.40
2022-08-02T15:46:37.051Z,91.20
2022-08-02T15:49:03.727Z,91.20
2022-08-02T15:51:30.362Z,91.30
2022-08-02T15:53:56.952Z,91.50
2022-08-02T15:56:23.976Z,90.50
2022-08-02T15:58:51.763Z,90.80
2022-08-02T16:01:22.326Z,91.30
2022-08-02T16:03:49.021Z,91.00
2022-08-02T16:06:15.882Z,90.70
2022-08-02T16:08:53.655Z,91.40
2022-08-02T16:11:22.039Z,91.40
2022-08-02T16:13:54.432Z,91.10
2022-08-02T16:16:26.712Z,91.50
2022-08-02T16:18:53.803Z,91.10
2022-08-02T16:21:22.650Z,91.40
2022-08-02T16:23:58.996Z,91.30
2022-08-02T16:26:34.321Z,91.60
2022-08-02T16:29:02.687Z,92.00
2022-08-02T16:31:29.577Z,92.10
2022-08-02T16:33:57.059Z,92.30
2022-08-02T16:36:25.636Z,92.40
2022-08-02T16:38:56.037Z,92.40
2022-08-02T16:41:23.278Z,92.50
2022-08-02T16:44:10.901Z,92.60
2022-08-02T16:46:37.614Z,92.70
2022-08-02T16:49:04.725Z,92.50
2022-08-02T16:51:31.688Z,92.60
2022-08-02T16:53:59.356Z,92.50
2022-08-02T16:56:28.032Z,92.70
2022-08-02T16:58:54.970Z,92.30
2022-08-02T17:01:27.170Z,92.80
2022-08-02T17:03:56.754Z,92.60
2022-08-02T17:06:26.070Z,93.00
2022-08-02T17:08:56.089Z,93.00
2022-08-02T17:11:23.633Z,92.80
2022-08-02T17:13:50.819Z,93.10
2022-08-02T17:16:20.637Z,93.40
2022-08-02T17:18:53.760Z,93.00
2022-08-02T17:21:20.709Z,93.20
2022-08-02T17:24:07.515Z,93.50
2022-08-02T17:26:35.085Z,93.20
2022-08-02T17:29:15.338Z,93.00
2022-08-02T17:32:05.773Z,92.90
2022-08-02T17:34:31.935Z,93.10
2022-08-02T17:36:59.936Z,93.10
2022-08-02T17:39:33.977Z,93.50
2022-08-02T17:42:01.585Z,93.40
2022-08-02T17:44:37.196Z,93.40
2022-08-02T17:47:11.604Z,93.70
2022-08-02T17:49:43.872Z,93.70
2022-08-02T17:52:15.877Z,94.10
2022-08-02T17:54:58.055Z,94.00
2022-08-02T17:57:24.838Z,94.40
2022-08-02T18:00:12.358Z,94.20
2022-08-02T18:02:39.311Z,94.50
2022-08-02T18:05:11.875Z,94.70
2022-08-02T18:07:50.069Z,94.50
2022-08-02T18:10:20.230Z,94.90
2022-08-02T18:12:47.084Z,94.60
2022-08-02T18:15:15.691Z,95.00
2022-08-02T18:17:42.332Z,95.30
2022-08-02T18:20:11.105Z,95.40
2022-08-02T18:22:38.122Z,95.70
2022-08-02T18:25:09.052Z,95.80
2022-08-02T18:27:38.976Z,95.90
2022-08-02T18:30:07.793Z,95.80
2022-08-02T18:33:56.032Z,96.10
2022-08-02T18:35:21.262Z,96.10
2022-08-02T18:37:56.687Z,96.60
2022-08-02T18:40:24.310Z,97.00
2022-08-02T18:42:50.918Z,97.20
2022-08-02T18:45:19.826Z,97.30
2022-08-02T18:47:50.840Z,97.50
2022-08-02T18:50:18.682Z,97.80
2022-08-02T18:52:47.602Z,98.10
2022-08-02T18:55:17.205Z,98.30
2022-08-02T18:58:18.031Z,98.60
2022-08-02T19:00:46.592Z,98.90
2022-08-02T19:03:14.374Z,99.30
2022-08-02T19:05:53.200Z,99.60
2022-08-02T19:08:20.705Z,99.90
2022-08-02T19:10:53.464Z,99.90
2022-08-02T19:13:23.071Z,99.90
2022-08-02T19:15:49.990Z,99.90
2022-08-02T19:18:16.694Z,99.90
2022-08-02T19:20:48.322Z,99.90
2022-08-02T19:23:17.073Z,99.90
2022-08-02T19:25:54.662Z,99.90
2022-08-02T19:28:26.072Z,99.90
2022-08-02T19:30:54.207Z,99.90
2022-08-02T19:33:54.402Z,99.90
2022-08-02T19:36:07.535Z,99.90
2022-08-02T19:38:34.344Z,99.90
2022-08-02T19:41:01.736Z,99.90
2022-08-02T19:44:25.376Z,99.90
2022-08-02T19:46:15.825Z,99.90
2022-08-02T19:48:45.980Z,99.90
2022-08-02T19:51:12.972Z,99.90
2022-08-02T19:53:46.659Z,99.90
2022-08-02T19:56:25.346Z,99.90
2022-08-02T19:58:54.073Z,99.90
2022-08-02T20:01:28.245Z,99.90
2022-08-02T20:04:04.619Z,99.90
2022-08-02T20:06:31.240Z,99.90
2022-08-02T20:09:01.141Z,99.90
2022-08-02T20:11:34.860Z,99.90
2022-08-02T20:14:03.433Z,99.90
2022-08-02T20:16:33.111Z,99.90
2022-08-02T20:19:00.778Z,99.90
2022-08-02T20:21:36.179Z,99.90
2022-08-02T20:24:07.633Z,99.90
2022-08-02T20:26:35.220Z,99.90
2022-08-02T20:29:03.508Z,99.90
2022-08-02T20:31:30.600Z,99.90
2022-08-02T20:33:57.407Z,99.90
2022-08-02T20:36:25.332Z,99.90
2022-08-02T20:38:52.164Z,99.90
2022-08-02T20:41:21.848Z,99.90
2022-08-02T20:43:49.124Z,99.90
2022-08-02T20:46:15.830Z,99.90
2022-08-02T20:48:42.467Z,99.90
2022-08-02T20:51:12.122Z,99.90
2022-08-02T20:56:25.736Z,99.90
2022-08-02T20:58:52.635Z,99.90
2022-08-02T21:01:21.202Z,99.90
2022-08-02T21:03:58.465Z,99.90
2022-08-02T21:06:35.467Z,99.90
2022-08-02T21:09:05.783Z,99.90
2022-08-02T21:11:33.756Z,99.90
2022-08-02T21:14:07.825Z,99.90
2022-08-02T21:16:36.068Z,99.90
2022-08-02T21:19:02.874Z,99.90
2022-08-02T21:21:34.770Z,99.90
2022-08-02T21:24:01.614Z,99.90
2022-08-02T21:26:31.102Z,99.90
2022-08-02T21:29:00.675Z,99.90
2022-08-02T21:31:32.046Z,99.90
2022-08-02T21:34:26.624Z,99.90
2022-08-02T21:36:54.220Z,99.90
2022-08-02T21:39:20.861Z,99.90
2022-08-02T21:41:47.897Z,99.90
2022-08-02T21:44:16.373Z,99.90
2022-08-02T21:46:45.274Z,99.90
2022-08-02T21:49:16.312Z,99.90
2022-08-02T21:51:43.618Z,99.90
2022-08-02T21:54:18.342Z,99.90
2022-08-02T21:56:48.515Z,99.90
2022-08-02T21:59:25.823Z,99.90
2022-08-02T22:01:57.575Z,99.90
2022-08-02T22:04:25.770Z,99.90
2022-08-02T22:06:53.697Z,99.90
2022-08-02T22:09:44.147Z,99.90
2022-08-02T22:12:10.141Z,99.90
2022-08-02T22:14:39.608Z,99.90
2022-08-02T22:17:08.775Z,99.90
2022-08-02T22:19:36.339Z,99.90
2022-08-02T22:22:03.060Z,99.90
2022-08-02T22:24:30.487Z,99.90
2022-08-02T22:26:57.547Z,99.90
2022-08-02T22:29:24.368Z,99.90
2022-08-02T22:31:52.021Z,99.90
2022-08-02T22:34:37.092Z,99.90
2022-08-02T22:37:05.723Z,99.90
2022-08-02T22:39:34.507Z,99.90
2022-08-02T22:42:07.055Z,99.90
2022-08-02T22:44:35.013Z,99.90
2022-08-02T22:47:07.048Z,99.90
2022-08-02T22:52:27.427Z,99.90
2022-08-02T22:54:54.886Z,99.90
2022-08-02T22:57:30.182Z,99.90
2022-08-02T22:59:07.697Z,99.90
2022-08-02T22:59:09.955Z,99.90
2022-08-02T22:59:58.337Z,99.90
2022-08-02T23:02:25.259Z,99.90
2022-08-02T23:04:52.361Z,99.90
2022-08-02T23:07:18.938Z,99.90
2022-08-02T23:09:45.526Z,99.90
2022-08-02T23:12:12.168Z,99.90
2022-08-02T23:14:38.779Z,99.90
2022-08-02T23:17:23.851Z,99.90
2022-08-02T23:19:50.513Z,99.90
2022-08-02T23:22:18.491Z,99.90
2022-08-02T23:24:46.178Z,99.90
2022-08-02T23:27:12.863Z,99.90
2022-08-02T23:29:39.475Z,99.90
2022-08-02T23:32:06.515Z,99.90
2022-08-02T23:34:35.084Z,99.90
2022-08-02T23:37:04.891Z,99.90
2022-08-02T23:39:32.714Z,99.90
2022-08-02T23:41:59.502Z,99.90
2022-08-02T23:44:26.855Z,99.90
2022-08-02T23:46:54.812Z,99.90
2022-08-02T23:49:23.288Z,99.90
2022-08-02T23:51:51.285Z,99.90
2022-08-02T23:54:18.997Z,99.90
2022-08-02T23:56:46.102Z,99.90
2022-08-02T23:59:13.047Z,99.90
